Time;durP1;ratioP1;P1;durP2;ratioP2;P2;SDS_P1;SDS_P2;PMS_P1;PMS_P2;Temp;Humidity;BMP_temperature;BMP_pressure;BME280_temperature;BME280_humidity;BME280_pressure;Samples;Min_cycle;Max_cycle;Signal;HPM_P1;HPM_P2
2023/03/19 00:01:25;;;;;;;;;;;16.60;59.70;;;;;;5003193;28;43514;-75
2023/03/19 00:03:51;;;;;;;;;;;16.70;59.70;;;;;;5003708;28;42928;-75
2023/03/19 00:06:16;;;;;;;;;;;16.60;59.80;;;;;;5003553;28;42736;-76
2023/03/19 00:08:42;;;;;;;;;;;16.80;59.80;;;;;;5002915;28;42967;-75
2023/03/19 00:11:08;;;;;;;;;;;16.60;59.80;;;;;;5002991;28;43713;-75
2023/03/19 00:13:34;;;;;;;;;;;16.60;59.60;;;;;;5002989;28;43101;-76
2023/03/19 00:16:00;;;;;;;;;;;16.70;59.80;;;;;;5003254;28;42886;-75
2023/03/19 00:18:25;;;;;;;;;;;16.60;59.80;;;;;;5003310;28;42998;-75
2023/03/19 00:20:51;;;;;;;;;;;16.60;59.70;;;;;;5021448;28;43637;-75
2023/03/19 00:23:16;;;;;;;;;;;16.50;59.80;;;;;;5023524;28;42865;-74
2023/03/19 00:25:42;;;;;;;;;;;16.60;59.80;;;;;;5024020;28;42945;-75
2023/03/19 00:28:08;;;;;;;;;;;16.50;59.70;;;;;;5027363;28;42958;-75
2023/03/19 00:30:34;;;;;;;;;;;16.60;59.80;;;;;;5026302;28;43790;-74
2023/03/19 00:33:00;;;;;;;;;;;16.70;59.70;;;;;;5026972;28;42995;-75
2023/03/19 00:35:25;;;;;;;;;;;16.70;59.90;;;;;;5026287;28;43320;-75
2023/03/19 00:37:51;;;;;;;;;;;16.60;59.30;;;;;;5025051;28;42808;-76
2023/03/19 00:40:17;;;;;;;;;;;16.50;59.70;;;;;;5026261;28;43235;-75
2023/03/19 00:42:43;;;;;;;;;;;16.50;59.70;;;;;;5026119;28;42790;-76
2023/03/19 00:45:09;;;;;;;;;;;16.60;59.80;;;;;;5026136;28;42914;-75
2023/03/19 00:47:35;;;;;;;;;;;16.50;59.30;;;;;;5026815;28;42951;-75
2023/03/19 00:50:03;;;;;;;;;;;16.60;59.40;;;;;;5025468;28;62544;-75
2023/03/19 00:52:29;;;;;;;;;;;16.50;59.50;;;;;;5026897;28;42960;-75
2023/03/19 00:54:55;;;;;;;;;;;16.60;59.80;;;;;;5026291;28;43556;-75
2023/03/19 00:57:21;;;;;;;;;;;16.50;59.80;;;;;;5026316;28;43054;-75
2023/03/19 00:59:46;;;;;;;;;;;16.60;59.70;;;;;;5026328;28;43814;-75
2023/03/19 01:02:12;;;;;;;;;;;16.40;59.70;;;;;;5026128;28;42929;-75
2023/03/19 01:04:37;;;;;;;;;;;16.50;59.40;;;;;;5026490;28;42921;-75
2023/03/19 01:07:03;;;;;;;;;;;16.60;60.00;;;;;;5026557;28;42947;-76
2023/03/19 01:09:29;;;;;;;;;;;16.60;59.70;;;;;;5026533;28;42858;-76
2023/03/19 01:11:54;;;;;;;;;;;16.40;59.70;;;;;;5026608;28;42929;-75
2023/03/19 01:14:20;;;;;;;;;;;16.60;59.70;;;;;;5026266;28;42827;-75
2023/03/19 01:16:45;;;;;;;;;;;16.60;59.80;;;;;;5026247;28;42963;-75
2023/03/19 01:19:11;;;;;;;;;;;16.70;60.00;;;;;;5026047;28;43904;-75
2023/03/19 01:21:37;;;;;;;;;;;16.50;59.80;;;;;;5008558;28;42946;-75
2023/03/19 01:24:02;;;;;;;;;;;16.60;59.80;;;;;;5026073;28;42793;-76
2023/03/19 01:26:28;;;;;;;;;;;16.50;59.70;;;;;;5025996;28;42952;-75
2023/03/19 01:28:54;;;;;;;;;;;17.00;60.10;;;;;;5007458;28;43889;-76
2023/03/19 01:31:19;;;;;;;;;;;16.70;59.80;;;;;;5025883;28;42822;-75
2023/03/19 01:33:45;;;;;;;;;;;16.70;59.40;;;;;;5025561;28;43780;-76
2023/03/19 01:36:11;;;;;;;;;;;16.40;59.90;;;;;;5025758;28;42871;-76
2023/03/19 01:38:36;;;;;;;;;;;16.60;59.30;;;;;;5024432;28;43923;-77
2023/03/19 01:41:02;;;;;;;;;;;16.50;59.70;;;;;;5025785;28;43049;-76
2023/03/19 01:43:28;;;;;;;;;;;16.60;59.70;;;;;;5025891;28;43479;-75
2023/03/19 01:45:55;;;;;;;;;;;16.60;59.70;;;;;;5025682;28;43116;-76
2023/03/19 01:48:30;;;;;;;;;;;16.60;59.50;;;;;;5025612;28;43884;-76
2023/03/19 01:50:56;;;;;;;;;;;16.70;58.80;;;;;;5025817;28;42959;-76
2023/03/19 01:53:24;;;;;;;;;;;16.50;59.60;;;;;;5025768;28;43700;-76
2023/03/19 01:55:51;;;;;;;;;;;16.60;59.80;;;;;;5026226;28;43298;-76
2023/03/19 01:58:16;;;;;;;;;;;16.50;59.80;;;;;;5025566;28;42841;-76
2023/03/19 02:00:42;;;;;;;;;;;16.50;59.90;;;;;;5026128;28;43081;-75
2023/03/19 02:03:08;;;;;;;;;;;16.40;59.70;;;;;;5025871;28;42759;-76
2023/03/19 02:05:35;;;;;;;;;;;16.30;59.70;;;;;;5026007;28;42966;-76
2023/03/19 02:08:04;;;;;;;;;;;16.40;59.70;;;;;;5025873;28;42960;-77
2023/03/19 02:10:29;;;;;;;;;;;16.50;59.70;;;;;;5025932;28;42920;-76
2023/03/19 02:12:55;;;;;;;;;;;16.70;59.60;;;;;;5024785;28;42824;-76
2023/03/19 02:15:21;;;;;;;;;;;16.60;59.70;;;;;;5025635;28;43071;-76
2023/03/19 02:17:46;;;;;;;;;;;16.80;59.60;;;;;;5024822;28;43518;-77
2023/03/19 02:20:21;;;;;;;;;;;16.60;59.50;;;;;;5025119;28;43139;-76
2023/03/19 02:22:59;;;;;;;;;;;16.70;58.70;;;;;;5025587;28;42810;-76
2023/03/19 02:25:39;;;;;;;;;;;16.40;58.60;;;;;;5025302;28;42956;-76
2023/03/19 02:28:06;;;;;;;;;;;16.60;58.80;;;;;;5025322;28;44337;-76
2023/03/19 02:30:32;;;;;;;;;;;16.70;59.80;;;;;;5024715;28;42905;-75
2023/03/19 02:32:58;;;;;;;;;;;16.50;59.70;;;;;;5025202;28;43165;-75
2023/03/19 02:35:24;;;;;;;;;;;16.40;59.80;;;;;;5025342;28;42928;-75
2023/03/19 02:37:50;;;;;;;;;;;16.40;59.70;;;;;;5025112;28;42894;-76
2023/03/19 02:40:19;;;;;;;;;;;16.50;59.80;;;;;;5024304;28;43010;-75
2023/03/19 02:42:44;;;;;;;;;;;16.60;59.80;;;;;;5025050;28;42852;-75
2023/03/19 02:45:10;;;;;;;;;;;16.50;59.90;;;;;;5025327;28;42904;-76
2023/03/19 02:47:35;;;;;;;;;;;16.50;59.80;;;;;;5024995;28;43307;-76
2023/03/19 02:50:01;;;;;;;;;;;16.40;59.80;;;;;;5025036;28;42928;-75
2023/03/19 02:52:27;;;;;;;;;;;16.50;59.80;;;;;;5025131;28;42848;-76
2023/03/19 02:54:52;;;;;;;;;;;16.50;59.70;;;;;;5025166;28;43109;-75
2023/03/19 02:57:18;;;;;;;;;;;16.40;59.70;;;;;;5024371;28;43429;-76
2023/03/19 02:59:43;;;;;;;;;;;16.50;59.70;;;;;;5024490;28;42850;-76
2023/03/19 03:02:09;;;;;;;;;;;16.50;59.80;;;;;;5025158;28;42848;-75
2023/03/19 03:04:36;;;;;;;;;;;16.50;59.60;;;;;;5024724;28;42870;-75
2023/03/19 03:07:02;;;;;;;;;;;16.50;59.60;;;;;;5005151;28;43485;-75
2023/03/19 03:09:27;;;;;;;;;;;16.50;59.60;;;;;;4985920;28;42901;-75
2023/03/19 03:11:53;;;;;;;;;;;16.50;59.70;;;;;;5004753;28;43211;-75
2023/03/19 03:14:19;;;;;;;;;;;16.40;59.50;;;;;;5004110;28;43052;-75
2023/03/19 03:16:44;;;;;;;;;;;16.50;59.70;;;;;;5004101;28;42993;-75
2023/03/19 03:19:10;;;;;;;;;;;16.50;59.70;;;;;;5003310;28;42894;-75
2023/03/19 03:21:36;;;;;;;;;;;16.60;59.80;;;;;;5004603;28;43306;-75
2023/03/19 03:24:01;;;;;;;;;;;16.60;59.80;;;;;;5004185;28;42930;-75
2023/03/19 03:26:27;;;;;;;;;;;16.50;59.70;;;;;;5004522;28;42918;-76
2023/03/19 03:28:52;;;;;;;;;;;16.50;59.70;;;;;;5004046;28;43032;-75
2023/03/19 03:31:18;;;;;;;;;;;16.40;59.70;;;;;;5003941;28;43440;-75
2023/03/19 03:33:44;;;;;;;;;;;16.50;59.90;;;;;;5004437;28;42843;-75
2023/03/19 03:36:10;;;;;;;;;;;16.50;59.80;;;;;;5003569;28;44004;-76
2023/03/19 03:38:35;;;;;;;;;;;16.60;59.90;;;;;;4985871;28;42793;-75
2023/03/19 03:41:01;;;;;;;;;;;16.50;59.70;;;;;;5004360;28;42859;-75
2023/03/19 03:43:26;;;;;;;;;;;16.60;59.30;;;;;;5003517;28;42874;-76
2023/03/19 03:45:52;;;;;;;;;;;16.50;59.70;;;;;;5004224;28;43679;-76
2023/03/19 03:48:17;;;;;;;;;;;16.20;59.50;;;;;;5003592;28;42898;-76
2023/03/19 03:50:43;;;;;;;;;;;16.60;59.70;;;;;;5004204;28;42979;-75
2023/03/19 03:53:08;;;;;;;;;;;16.60;60.20;;;;;;5003430;28;42997;-76
2023/03/19 03:55:34;;;;;;;;;;;16.40;59.60;;;;;;5004012;28;43693;-75
2023/03/19 03:57:59;;;;;;;;;;;16.60;59.80;;;;;;5006604;28;43438;-76
2023/03/19 04:00:25;;;;;;;;;;;16.60;59.80;;;;;;5023983;28;42960;-76
2023/03/19 04:02:51;;;;;;;;;;;16.50;59.80;;;;;;5026682;28;42771;-76
2023/03/19 04:05:16;;;;;;;;;;;16.50;59.60;;;;;;5027052;28;43564;-76
2023/03/19 04:07:42;;;;;;;;;;;16.50;59.70;;;;;;5026435;28;42983;-75
2023/03/19 04:10:09;;;;;;;;;;;16.60;59.80;;;;;;5025841;28;43045;-75
2023/03/19 04:12:36;;;;;;;;;;;16.50;59.60;;;;;;5025696;28;43062;-76
2023/03/19 04:15:02;;;;;;;;;;;16.50;59.90;;;;;;5026492;28;43324;-75
2023/03/19 04:17:28;;;;;;;;;;;16.60;59.80;;;;;;5026614;28;43097;-76
2023/03/19 04:19:54;;;;;;;;;;;16.40;59.80;;;;;;5025727;28;42886;-76
2023/03/19 04:22:19;;;;;;;;;;;16.50;59.80;;;;;;5026589;28;42862;-76
2023/03/19 04:24:44;;;;;;;;;;;16.40;59.80;;;;;;5026200;28;42814;-76
2023/03/19 04:27:10;;;;;;;;;;;16.60;59.90;;;;;;5027179;28;42954;-76
2023/03/19 04:29:36;;;;;;;;;;;16.60;59.90;;;;;;5026536;28;42922;-75
2023/03/19 04:32:01;;;;;;;;;;;16.40;59.80;;;;;;5026407;28;43577;-75
2023/03/19 04:34:27;;;;;;;;;;;16.50;59.90;;;;;;5026190;28;43003;-75
2023/03/19 04:36:52;;;;;;;;;;;16.30;60.00;;;;;;5026774;28;42998;-75
2023/03/19 04:39:18;;;;;;;;;;;16.50;60.00;;;;;;5026169;28;43714;-75
2023/03/19 04:41:44;;;;;;;;;;;16.50;59.90;;;;;;5025413;28;43004;-76
2023/03/19 04:44:09;;;;;;;;;;;16.50;59.60;;;;;;5025522;28;43560;-75
2023/03/19 04:46:35;;;;;;;;;;;16.60;59.90;;;;;;5026626;28;42938;-75
2023/03/19 04:49:00;;;;;;;;;;;16.40;59.90;;;;;;5026014;28;42868;-75
2023/03/19 04:51:27;;;;;;;;;;;16.50;60.00;;;;;;5025788;28;42999;-75
2023/03/19 04:53:52;;;;;;;;;;;16.50;60.00;;;;;;5025670;28;42978;-75
2023/03/19 04:56:18;;;;;;;;;;;16.40;59.90;;;;;;5026377;28;43066;-75
2023/03/19 04:58:43;;;;;;;;;;;16.70;59.90;;;;;;5025585;28;43798;-75
2023/03/19 05:01:09;;;;;;;;;;;16.50;59.70;;;;;;5026532;28;43665;-74
2023/03/19 05:03:35;;;;;;;;;;;16.60;59.70;;;;;;5025485;28;43494;-76
2023/03/19 05:06:00;;;;;;;;;;;16.50;59.80;;;;;;5026139;28;42801;-75
2023/03/19 05:08:26;;;;;;;;;;;16.60;60.00;;;;;;5025281;28;42868;-75
2023/03/19 05:10:52;;;;;;;;;;;16.40;59.90;;;;;;5025664;28;43052;-76
2023/03/19 05:13:17;;;;;;;;;;;16.40;59.90;;;;;;5024046;28;42926;-75
2023/03/19 05:15:43;;;;;;;;;;;16.50;59.90;;;;;;5025715;28;43016;-75
2023/03/19 05:18:09;;;;;;;;;;;16.30;59.80;;;;;;5024261;28;42866;-75
2023/03/19 05:20:36;;;;;;;;;;;16.50;59.90;;;;;;5024990;28;43028;-75
2023/03/19 05:23:02;;;;;;;;;;;16.30;59.80;;;;;;5024984;28;43444;-75
2023/03/19 05:25:28;;;;;;;;;;;16.50;59.80;;;;;;5025758;28;42900;-75
2023/03/19 05:27:54;;;;;;;;;;;16.40;59.80;;;;;;5024545;28;43578;-75
2023/03/19 05:30:20;;;;;;;;;;;16.60;59.90;;;;;;5026007;28;42791;-76
2023/03/19 05:32:45;;;;;;;;;;;16.60;59.80;;;;;;5025126;28;43005;-75
2023/03/19 05:35:11;;;;;;;;;;;16.60;59.80;;;;;;5024323;28;42837;-75
2023/03/19 05:37:37;;;;;;;;;;;16.40;59.80;;;;;;5023064;28;43026;-75
2023/03/19 05:40:03;;;;;;;;;;;16.50;59.90;;;;;;5025048;28;42920;-75
2023/03/19 05:42:28;;;;;;;;;;;16.40;59.60;;;;;;5025612;28;43489;-76
2023/03/19 05:44:54;;;;;;;;;;;16.40;59.90;;;;;;5025314;28;42920;-76
2023/03/19 05:47:20;;;;;;;;;;;16.40;59.80;;;;;;5026085;28;43012;-75
2023/03/19 05:49:46;;;;;;;;;;;16.50;60.00;;;;;;5024307;28;43041;-75
2023/03/19 05:52:11;;;;;;;;;;;16.50;59.80;;;;;;5006466;28;43845;-75
2023/03/19 05:54:37;;;;;;;;;;;16.50;59.80;;;;;;5025437;28;43006;-75
2023/03/19 05:57:03;;;;;;;;;;;16.50;60.00;;;;;;5025188;28;43662;-75
2023/03/19 05:59:28;;;;;;;;;;;16.50;59.70;;;;;;5024994;28;42845;-75
2023/03/19 06:01:54;;;;;;;;;;;16.50;59.70;;;;;;5024909;28;42823;-75
2023/03/19 06:04:19;;;;;;;;;;;16.40;59.80;;;;;;5025254;28;43016;-75
2023/03/19 06:06:46;;;;;;;;;;;16.40;59.90;;;;;;5025202;28;43637;-75
2023/03/19 06:09:11;;;;;;;;;;;16.50;59.80;;;;;;5025280;28;42871;-75
2023/03/19 06:11:39;;;;;;;;;;;16.60;59.90;;;;;;5024789;28;42857;-76
2023/03/19 06:14:05;;;;;;;;;;;16.50;59.80;;;;;;5025040;28;43008;-75
2023/03/19 06:16:31;;;;;;;;;;;16.50;59.40;;;;;;5007236;28;44336;-75
2023/03/19 06:18:57;;;;;;;;;;;16.40;60.20;;;;;;5023627;28;43610;-75
2023/03/19 06:21:24;;;;;;;;;;;16.50;60.20;;;;;;5023306;28;42990;-75
2023/03/19 06:23:50;;;;;;;;;;;16.40;59.40;;;;;;5005752;28;43100;-75
2023/03/19 06:26:16;;;;;;;;;;;16.50;59.30;;;;;;5024778;28;43793;-75
2023/03/19 06:28:41;;;;;;;;;;;16.50;60.00;;;;;;5007068;28;42910;-75
2023/03/19 06:31:07;;;;;;;;;;;16.50;59.40;;;;;;5006352;28;45665;-75
2023/03/19 06:33:32;;;;;;;;;;;16.00;59.30;;;;;;5005941;28;43051;-76
2023/03/19 06:35:58;;;;;;;;;;;16.30;60.00;;;;;;5022406;28;42913;-75
2023/03/19 06:38:24;;;;;;;;;;;16.50;60.30;;;;;;5024109;28;43016;-75
2023/03/19 06:40:49;;;;;;;;;;;16.60;59.50;;;;;;5024805;28;43047;-75
2023/03/19 06:43:16;;;;;;;;;;;16.40;59.90;;;;;;5017993;28;42932;-76
2023/03/19 06:45:41;;;;;;;;;;;16.50;60.20;;;;;;5020071;28;43767;-75
2023/03/19 06:48:07;;;;;;;;;;;16.50;59.90;;;;;;5024234;28;42964;-76
2023/03/19 06:50:32;;;;;;;;;;;16.60;59.90;;;;;;4998557;28;44894;-75
2023/03/19 06:52:58;;;;;;;;;;;16.50;59.80;;;;;;5009550;28;42978;-75
2023/03/19 06:55:23;;;;;;;;;;;16.60;59.40;;;;;;5004354;28;43054;-75
2023/03/19 06:57:49;;;;;;;;;;;16.60;59.80;;;;;;5005109;28;43000;-75
2023/03/19 07:00:15;;;;;;;;;;;16.70;59.70;;;;;;4985941;28;43980;-76
2023/03/19 07:02:41;;;;;;;;;;;16.40;59.20;;;;;;5003895;28;43052;-76
2023/03/19 07:05:06;;;;;;;;;;;16.60;59.90;;;;;;5015293;28;43469;-76
2023/03/19 07:07:32;;;;;;;;;;;16.60;59.90;;;;;;5003741;28;43033;-76
2023/03/19 07:09:57;;;;;;;;;;;16.60;59.70;;;;;;5004112;28;42860;-76
2023/03/19 07:12:26;;;;;;;;;;;16.60;59.30;;;;;;5004359;28;43612;-76
2023/03/19 07:14:53;;;;;;;;;;;16.60;59.80;;;;;;5003941;28;43555;-76
2023/03/19 07:17:18;;;;;;;;;;;16.70;59.90;;;;;;5004803;28;42995;-76
2023/03/19 07:19:44;;;;;;;;;;;16.60;59.90;;;;;;5004495;28;43029;-76
2023/03/19 07:22:09;;;;;;;;;;;16.70;59.30;;;;;;5004861;28;42805;-75
2023/03/19 07:24:35;;;;;;;;;;;16.60;59.30;;;;;;4985617;28;44055;-75
2023/03/19 07:27:01;;;;;;;;;;;16.70;59.40;;;;;;5004411;28;42857;-75
2023/03/19 07:29:27;;;;;;;;;;;16.70;59.30;;;;;;5004042;28;43430;-75
2023/03/19 07:31:53;;;;;;;;;;;16.70;59.50;;;;;;4991847;28;43522;-75
2023/03/19 07:34:18;;;;;;;;;;;16.70;60.10;;;;;;5021431;28;42924;-76
2023/03/19 07:36:44;;;;;;;;;;;16.80;60.00;;;;;;5026684;28;43037;-75
2023/03/19 07:39:09;;;;;;;;;;;16.70;59.40;;;;;;5021404;28;42981;-76
2023/03/19 07:41:35;;;;;;;;;;;16.60;59.80;;;;;;5014788;28;43027;-75
2023/03/19 07:44:01;;;;;;;;;;;16.80;60.20;;;;;;5010038;28;43637;-76
2023/03/19 07:46:27;;;;;;;;;;;16.60;60.10;;;;;;5027285;28;42952;-77
2023/03/19 07:48:52;;;;;;;;;;;16.70;60.40;;;;;;5026798;28;43068;-77
2023/03/19 07:51:18;;;;;;;;;;;16.60;60.10;;;;;;5020257;28;43060;-76
2023/03/19 07:53:43;;;;;;;;;;;16.80;59.50;;;;;;5014533;28;43758;-76
2023/03/19 07:56:10;;;;;;;;;;;16.80;59.40;;;;;;5018545;28;43071;-76
2023/03/19 07:58:37;;;;;;;;;;;16.80;59.60;;;;;;4999809;28;44876;-75
2023/03/19 08:01:02;;;;;;;;;;;16.70;58.80;;;;;;5005928;28;42935;-76
2023/03/19 08:03:28;;;;;;;;;;;16.80;59.80;;;;;;5027299;28;43008;-78
2023/03/19 08:05:53;;;;;;;;;;;16.70;59.80;;;;;;5023309;28;42993;-78
2023/03/19 08:08:19;;;;;;;;;;;16.70;60.20;;;;;;5024908;28;43178;-75
2023/03/19 08:10:46;;;;;;;;;;;16.80;59.40;;;;;;5004058;28;43649;-76
2023/03/19 08:13:13;;;;;;;;;;;16.90;59.60;;;;;;5016595;28;43225;-76
2023/03/19 08:15:38;;;;;;;;;;;16.80;60.20;;;;;;5021011;28;43081;-76
2023/03/19 08:18:04;;;;;;;;;;;16.60;60.60;;;;;;5016801;28;43230;-78
2023/03/19 08:20:30;;;;;;;;;;;16.70;60.20;;;;;;5012475;28;42935;-78
2023/03/19 08:22:56;;;;;;;;;;;16.70;59.70;;;;;;5004080;28;44617;-77
2023/03/19 08:25:22;;;;;;;;;;;16.50;60.10;;;;;;5008260;28;43138;-78
2023/03/19 08:27:48;;;;;;;;;;;16.80;60.30;;;;;;5015643;28;43586;-78
2023/03/19 08:30:13;;;;;;;;;;;16.70;59.60;;;;;;5024925;28;43062;-78
2023/03/19 08:32:39;;;;;;;;;;;16.80;60.20;;;;;;5015355;28;43578;-75
2023/03/19 08:35:05;;;;;;;;;;;16.60;59.60;;;;;;5006227;28;43031;-75
2023/03/19 08:37:31;;;;;;;;;;;16.60;60.10;;;;;;5005822;28;43888;-75
2023/03/19 08:39:57;;;;;;;;;;;16.60;60.40;;;;;;5006721;28;43136;-75
2023/03/19 08:42:22;;;;;;;;;;;16.70;60.40;;;;;;4989196;28;44904;-75
2023/03/19 08:44:48;;;;;;;;;;;16.80;60.30;;;;;;5007409;28;42893;-75
2023/03/19 08:47:14;;;;;;;;;;;16.70;60.20;;;;;;5006171;28;43548;-75
2023/03/19 08:49:39;;;;;;;;;;;16.70;60.10;;;;;;5006975;28;42941;-75
2023/03/19 08:52:05;;;;;;;;;;;16.80;60.20;;;;;;5006589;28;44408;-75
2023/03/19 08:54:31;;;;;;;;;;;16.90;60.00;;;;;;5007398;28;42949;-76
2023/03/19 08:56:58;;;;;;;;;;;16.80;60.00;;;;;;5007081;28;42985;-75
2023/03/19 08:59:23;;;;;;;;;;;17.00;60.10;;;;;;5006687;28;43093;-74
2023/03/19 09:01:50;;;;;;;;;;;16.90;59.80;;;;;;5006661;28;43798;-75
2023/03/19 09:04:16;;;;;;;;;;;16.90;59.40;;;;;;4989063;28;43029;-75
2023/03/19 09:06:41;;;;;;;;;;;17.00;60.00;;;;;;5007117;28;43627;-76
2023/03/19 09:09:06;;;;;;;;;;;16.90;59.80;;;;;;5007451;28;43017;-75
2023/03/19 09:11:32;;;;;;;;;;;16.80;59.80;;;;;;5007060;28;42962;-75
2023/03/19 09:13:57;;;;;;;;;;;16.90;59.70;;;;;;5006530;28;42905;-75
2023/03/19 09:16:24;;;;;;;;;;;16.80;59.90;;;;;;5006458;28;43644;-75
2023/03/19 09:18:50;;;;;;;;;;;16.80;59.60;;;;;;5006503;28;42894;-75
2023/03/19 09:21:16;;;;;;;;;;;16.90;59.80;;;;;;5006551;28;43630;-75
2023/03/19 09:23:41;;;;;;;;;;;17.00;59.70;;;;;;5006615;28;42951;-76
2023/03/19 09:26:07;;;;;;;;;;;17.00;59.70;;;;;;5006622;28;43344;-75
2023/03/19 09:28:33;;;;;;;;;;;16.90;59.80;;;;;;5006490;28;42858;-75
2023/03/19 09:30:58;;;;;;;;;;;17.00;59.80;;;;;;5005599;28;42949;-76
2023/03/19 09:33:24;;;;;;;;;;;17.00;60.00;;;;;;5006159;28;42926;-75
2023/03/19 09:35:51;;;;;;;;;;;16.80;59.80;;;;;;5005894;28;43378;-75
2023/03/19 09:38:17;;;;;;;;;;;16.90;59.70;;;;;;5006792;28;43014;-76
2023/03/19 09:40:45;;;;;;;;;;;16.90;59.70;;;;;;5006659;28;42966;-76
2023/03/19 09:43:25;;;;;;;;;;;16.70;59.70;;;;;;5006617;28;42762;-75
2023/03/19 09:45:50;;;;;;;;;;;17.10;58.80;;;;;;5006453;28;43522;-76
2023/03/19 09:48:30;;;;;;;;;;;16.90;59.60;;;;;;5005893;28;43001;-75
2023/03/19 09:50:56;;;;;;;;;;;17.00;58.70;;;;;;5005904;28;42957;-75
2023/03/19 09:53:40;;;;;;;;;;;17.10;59.70;;;;;;5006115;28;42976;-75
2023/03/19 09:56:08;;;;;;;;;;;16.80;58.60;;;;;;5006120;28;43536;-75
2023/03/19 09:58:34;;;;;;;;;;;17.00;59.70;;;;;;5003624;28;42899;-75
2023/03/19 10:01:00;;;;;;;;;;;17.10;59.90;;;;;;4987809;28;44332;-75
2023/03/19 10:03:29;;;;;;;;;;;16.90;59.10;;;;;;5006272;28;42886;-75
2023/03/19 10:06:09;;;;;;;;;;;17.00;58.80;;;;;;5005978;28;43795;-76
2023/03/19 10:08:50;;;;;;;;;;;16.90;58.60;;;;;;5006185;28;42827;-75
2023/03/19 10:11:29;;;;;;;;;;;15.60;57.80;;;;;;5006059;28;43391;-76
2023/03/19 10:14:02;;;;;;;;;;;17.00;58.70;;;;;;5005969;28;42930;-76
2023/03/19 10:16:29;;;;;;;;;;;17.10;58.70;;;;;;4987712;28;45061;-75
2023/03/19 10:18:56;;;;;;;;;;;17.20;60.00;;;;;;5005771;28;43037;-76
2023/03/19 10:21:25;;;;;;;;;;;16.90;59.70;;;;;;5006039;28;43012;-75
2023/03/19 10:24:00;;;;;;;;;;;17.00;59.80;;;;;;5005736;28;43090;-75
2023/03/19 10:26:30;;;;;;;;;;;16.80;58.60;;;;;;4988108;28;44554;-75
2023/03/19 10:29:04;;;;;;;;;;;17.20;58.80;;;;;;5005689;28;43029;-75
2023/03/19 10:31:46;;;;;;;;;;;17.10;58.90;;;;;;4987650;28;44602;-75
2023/03/19 10:34:14;;;;;;;;;;;16.70;58.90;;;;;;5005913;28;42788;-76
2023/03/19 10:36:40;;;;;;;;;;;16.80;58.40;;;;;;5006023;28;42861;-75
2023/03/19 10:39:06;;;;;;;;;;;17.00;59.40;;;;;;5006090;28;42903;-75
2023/03/19 10:41:47;;;;;;;;;;;17.00;59.90;;;;;;5005676;28;43397;-75
2023/03/19 10:44:18;;;;;;;;;;;17.00;58.80;;;;;;5005346;28;42982;-75
2023/03/19 10:46:44;;;;;;;;;;;17.10;59.90;;;;;;5005344;28;42955;-75
2023/03/19 10:49:10;;;;;;;;;;;16.90;59.60;;;;;;5004999;28;42870;-75
2023/03/19 10:51:38;;;;;;;;;;;17.10;59.70;;;;;;5005073;28;43818;-76
2023/03/19 10:54:16;;;;;;;;;;;17.00;59.70;;;;;;5004972;28;42927;-75
2023/03/19 10:56:44;;;;;;;;;;;17.10;59.80;;;;;;5005424;28;42942;-75
2023/03/19 10:59:39;;;;;;;;;;;17.00;59.80;;;;;;5005535;28;43071;-75
2023/03/19 11:02:22;;;;;;;;;;;17.00;58.70;;;;;;4991807;28;43742;-75
2023/03/19 11:04:48;;;;;;;;;;;17.00;58.70;;;;;;5005486;28;42924;-76
2023/03/19 11:07:18;;;;;;;;;;;17.00;59.80;;;;;;5004806;28;43526;-75
2023/03/19 11:09:45;;;;;;;;;;;16.90;59.70;;;;;;5004444;28;42984;-75
2023/03/19 11:12:13;;;;;;;;;;;17.20;60.10;;;;;;5004787;28;43792;-76
2023/03/19 11:14:43;;;;;;;;;;;17.10;58.70;;;;;;5005072;28;43548;-75
2023/03/19 11:17:21;;;;;;;;;;;17.20;59.80;;;;;;5005283;28;42888;-75
2023/03/19 11:19:51;;;;;;;;;;;17.00;58.70;;;;;;5005158;28;42934;-75
2023/03/19 11:22:37;;;;;;;;;;;17.00;58.60;;;;;;4987351;28;44451;-75
2023/03/19 11:25:13;;;;;;;;;;;17.20;59.70;;;;;;5004344;28;43075;-75
2023/03/19 11:27:39;;;;;;;;;;;17.30;59.70;;;;;;5004454;28;43693;-76
2023/03/19 11:30:18;;;;;;;;;;;17.20;59.10;;;;;;5005416;28;43055;-75
2023/03/19 11:33:02;;;;;;;;;;;17.20;58.60;;;;;;5003883;28;44340;-75
2023/03/19 11:35:31;;;;;;;;;;;17.10;58.50;;;;;;5004065;28;42971;-75
2023/03/19 11:38:00;;;;;;;;;;;17.10;59.60;;;;;;5004113;28;43002;-75
2023/03/19 11:40:45;;;;;;;;;;;17.30;58.60;;;;;;5004899;28;42910;-75
2023/03/19 11:43:10;;;;;;;;;;;17.30;58.60;;;;;;5004299;28;42976;-75
2023/03/19 11:45:36;;;;;;;;;;;17.20;59.50;;;;;;5005167;28;43067;-74
2023/03/19 11:48:04;;;;;;;;;;;17.20;59.50;;;;;;5004325;28;43038;-75
2023/03/19 11:50:48;;;;;;;;;;;17.30;58.60;;;;;;5004298;28;42998;-75
2023/03/19 11:53:14;;;;;;;;;;;17.50;58.70;;;;;;5004587;28;43090;-75
2023/03/19 11:55:42;;;;;;;;;;;17.30;59.60;;;;;;5004355;28;42894;-75
2023/03/19 11:58:20;;;;;;;;;;;17.20;59.50;;;;;;5004262;28;42914;-76
2023/03/19 12:01:09;;;;;;;;;;;17.30;58.60;;;;;;5004370;28;42984;-75
2023/03/19 12:03:40;;;;;;;;;;;17.20;58.50;;;;;;4975769;28;43024;-76
2023/03/19 12:06:24;;;;;;;;;;;17.20;58.50;;;;;;5004585;28;42926;-75
2023/03/19 12:08:50;;;;;;;;;;;17.40;58.60;;;;;;5004526;28;42824;-75
2023/03/19 12:11:21;;;;;;;;;;;17.30;59.60;;;;;;5004851;28;42858;-76
2023/03/19 12:13:47;;;;;;;;;;;17.10;58.50;;;;;;5003960;28;43429;-75
2023/03/19 12:16:31;;;;;;;;;;;17.30;59.60;;;;;;5004084;28;42910;-75
2023/03/19 12:18:58;;;;;;;;;;;17.30;58.60;;;;;;5004112;28;43937;-75
2023/03/19 12:21:24;;;;;;;;;;;17.10;59.70;;;;;;5004233;28;42994;-75
2023/03/19 12:23:55;;;;;;;;;;;17.20;59.60;;;;;;4989159;28;44442;-75
2023/03/19 12:26:21;;;;;;;;;;;17.30;58.60;;;;;;5007810;28;43010;-76
2023/03/19 12:28:53;;;;;;;;;;;17.40;59.70;;;;;;5007542;28;42870;-77
2023/03/19 12:31:28;;;;;;;;;;;17.20;59.60;;;;;;5007172;28;42839;-75
2023/03/19 12:33:56;;;;;;;;;;;17.30;58.60;;;;;;5008086;28;42844;-76
2023/03/19 12:36:27;;;;;;;;;;;17.40;58.60;;;;;;5007542;28;42815;-75
2023/03/19 12:38:57;;;;;;;;;;;17.20;58.60;;;;;;5007484;28;42903;-75
2023/03/19 12:41:27;;;;;;;;;;;17.30;59.60;;;;;;5007670;28;42859;-76
2023/03/19 12:43:55;;;;;;;;;;;17.30;58.50;;;;;;5007399;28;43393;-76
2023/03/19 12:46:44;;;;;;;;;;;17.40;58.70;;;;;;5006887;28;43662;-75
2023/03/19 12:49:14;;;;;;;;;;;17.20;58.60;;;;;;4999171;28;43563;-75
2023/03/19 12:51:42;;;;;;;;;;;17.00;59.40;;;;;;5007437;28;42891;-75
2023/03/19 12:54:11;;;;;;;;;;;17.30;59.60;;;;;;5007079;28;43133;-75
2023/03/19 12:56:40;;;;;;;;;;;17.40;58.60;;;;;;5007157;28;42905;-76
2023/03/19 12:59:12;;;;;;;;;;;17.20;59.50;;;;;;5007727;28;43937;-75
2023/03/19 13:01:44;;;;;;;;;;;17.30;58.60;;;;;;5007213;28;43004;-75
2023/03/19 13:04:16;;;;;;;;;;;17.20;58.60;;;;;;5007074;28;43497;-75
2023/03/19 13:06:47;;;;;;;;;;;17.50;58.70;;;;;;4989183;28;43010;-75
2023/03/19 13:09:31;;;;;;;;;;;17.40;59.70;;;;;;5006626;28;43473;-75
2023/03/19 13:12:10;;;;;;;;;;;17.20;58.60;;;;;;5006578;28;43019;-76
2023/03/19 13:14:42;;;;;;;;;;;17.40;58.70;;;;;;5006281;28;44660;-75
2023/03/19 13:17:17;;;;;;;;;;;17.20;58.60;;;;;;5006674;28;42916;-75
2023/03/19 13:19:45;;;;;;;;;;;17.30;58.70;;;;;;5006052;28;43009;-75
2023/03/19 13:22:16;;;;;;;;;;;17.30;59.70;;;;;;5006966;28;42958;-75
2023/03/19 13:24:44;;;;;;;;;;;17.30;59.60;;;;;;5006110;28;42954;-75
2023/03/19 13:27:20;;;;;;;;;;;17.30;59.60;;;;;;5006580;28;42916;-75
2023/03/19 13:30:05;;;;;;;;;;;17.30;59.70;;;;;;5006656;28;43676;-75
2023/03/19 13:32:40;;;;;;;;;;;17.20;58.60;;;;;;5006299;28;42703;-74
2023/03/19 13:35:28;;;;;;;;;;;17.20;58.60;;;;;;5005931;28;43032;-75
2023/03/19 13:37:56;;;;;;;;;;;17.30;58.60;;;;;;4997822;28;43014;-75
2023/03/19 13:40:37;;;;;;;;;;;17.30;59.70;;;;;;5006507;28;44622;-75
2023/03/19 13:43:03;;;;;;;;;;;17.30;58.70;;;;;;5006459;28;42930;-75
2023/03/19 13:45:37;;;;;;;;;;;17.20;59.80;;;;;;5006567;28;43510;-75
2023/03/19 13:48:23;;;;;;;;;;;17.30;59.70;;;;;;5006449;28;42757;-75
2023/03/19 13:51:08;;;;;;;;;;;17.30;58.80;;;;;;5006431;28;42931;-75
2023/03/19 13:53:36;;;;;;;;;;;17.50;59.80;;;;;;4995312;28;43071;-75
2023/03/19 13:56:09;;;;;;;;;;;17.40;59.70;;;;;;5006719;28;43406;-76
2023/03/19 13:58:53;;;;;;;;;;;17.30;58.60;;;;;;5006351;28;43039;-75
2023/03/19 14:01:24;;;;;;;;;;;17.40;58.70;;;;;;5006158;28;42933;-76
2023/03/19 14:03:57;;;;;;;;;;;17.30;58.60;;;;;;5006485;28;42922;-75
2023/03/19 14:06:38;;;;;;;;;;;17.40;58.80;;;;;;5005926;28;42816;-76
2023/03/19 14:09:04;;;;;;;;;;;17.30;58.20;;;;;;5006094;28;42882;-76
2023/03/19 14:11:34;;;;;;;;;;;17.40;59.70;;;;;;5005993;28;43671;-75
2023/03/19 14:14:01;;;;;;;;;;;17.40;59.70;;;;;;5005969;28;43017;-75
2023/03/19 14:16:32;;;;;;;;;;;17.40;59.70;;;;;;5005662;28;42771;-75
2023/03/19 14:18:59;;;;;;;;;;;17.40;58.70;;;;;;5005992;28;43061;-75
2023/03/19 14:21:34;;;;;;;;;;;17.50;59.80;;;;;;5006030;28;43883;-75